createdAt,value
2023-01-15T00:02:09.042Z,35.80
2023-01-15T00:04:35.932Z,33.90
2023-01-15T00:07:03.923Z,37.60
2023-01-15T00:09:30.754Z,45.60
2023-01-15T00:11:57.459Z,43.00
2023-01-15T00:14:24.187Z,42.70
2023-01-15T00:16:51.999Z,49.60
2023-01-15T00:19:18.949Z,43.00
2023-01-15T00:21:45.951Z,42.60
2023-01-15T00:24:31.518Z,42.50
2023-01-15T00:27:16.938Z,41.00
2023-01-15T00:29:46.722Z,45.60
2023-01-15T00:32:14.173Z,43.00
2023-01-15T00:34:42.131Z,45.90
2023-01-15T00:37:08.866Z,44.60
2023-01-15T00:39:36.734Z,47.10
2023-01-15T00:42:04.026Z,47.40
2023-01-15T00:44:33.332Z,44.90
2023-01-15T00:47:00.220Z,45.10
2023-01-15T00:49:26.948Z,45.80
2023-01-15T00:51:55.240Z,47.60
2023-01-15T00:54:22.048Z,48.50
2023-01-15T00:56:48.796Z,44.90
2023-01-15T00:59:15.580Z,46.00
2023-01-15T01:01:43.106Z,47.80
2023-01-15T01:04:10.587Z,46.80
2023-01-15T01:06:37.595Z,49.80
2023-01-15T01:09:04.649Z,40.80
2023-01-15T01:11:33.777Z,38.20
2023-01-15T01:14:00.869Z,45.40
2023-01-15T01:16:37.064Z,44.80
2023-01-15T01:19:09.599Z,44.80
2023-01-15T01:21:37.419Z,42.90
2023-01-15T01:24:05.241Z,39.30
2023-01-15T01:26:33.710Z,36.50
2023-01-15T01:29:00.671Z,35.10
2023-01-15T01:31:27.513Z,37.60
2023-01-15T01:33:55.814Z,33.20
2023-01-15T01:36:30.544Z,31.60
2023-01-15T01:38:58.680Z,33.80
2023-01-15T01:41:25.596Z,31.90
2023-01-15T01:44:02.166Z,33.50
2023-01-15T01:46:31.043Z,32.30
2023-01-15T01:49:08.962Z,30.70
2023-01-15T01:51:42.941Z,29.60
2023-01-15T01:54:10.205Z,31.40
2023-01-15T01:56:37.165Z,26.70
2023-01-15T01:59:04.159Z,28.20
2023-01-15T02:01:31.450Z,29.00
2023-01-15T02:03:58.482Z,27.70
2023-01-15T02:06:25.638Z,33.40
2023-01-15T02:08:52.524Z,30.50
2023-01-15T02:11:21.795Z,32.70
2023-01-15T02:13:51.866Z,30.00
2023-01-15T02:16:24.752Z,28.50
2023-01-15T02:19:46.193Z,31.50
2023-01-15T02:22:20.948Z,30.70
2023-01-15T02:25:07.763Z,30.50
2023-01-15T02:39:17.415Z,29.50
2023-01-15T02:41:47.243Z,26.70
2023-01-15T02:44:16.256Z,30.80
2023-01-15T02:46:43.031Z,32.10
2023-01-15T02:49:13.567Z,32.50
2023-01-15T02:51:45.562Z,29.30
2023-01-15T02:54:13.915Z,33.00
2023-01-15T02:56:41.718Z,33.30
2023-01-15T02:59:11.865Z,31.00
2023-01-15T03:01:52.445Z,31.90
2023-01-15T03:04:26.827Z,32.60
2023-01-15T03:07:08.368Z,29.80
2023-01-15T03:09:36.699Z,31.20
2023-01-15T03:12:09.500Z,31.00
2023-01-15T03:14:51.724Z,33.90
2023-01-15T03:17:47.709Z,32.00
2023-01-15T03:20:23.863Z,39.90
2023-01-15T03:22:53.330Z,37.00
2023-01-15T03:25:29.350Z,34.50
2023-01-15T03:27:59.458Z,34.50
2023-01-15T03:30:26.949Z,36.00
2023-01-15T03:32:55.003Z,29.20
2023-01-15T03:35:57.087Z,36.90
2023-01-15T03:38:30.609Z,36.00
2023-01-15T03:41:17.691Z,38.30
2023-01-15T03:44:22.680Z,39.00
2023-01-15T03:47:02.068Z,36.80
2023-01-15T03:50:00.751Z,38.10
2023-01-15T03:52:50.558Z,40.00
2023-01-15T03:55:29.979Z,44.00
2023-01-15T03:58:15.062Z,38.70
2023-01-15T04:12:00.658Z,39.90
2023-01-15T04:14:31.514Z,43.60
2023-01-15T04:16:59.814Z,43.90
2023-01-15T04:19:26.834Z,47.90
2023-01-15T04:22:00.132Z,38.30
2023-01-15T04:24:27.278Z,39.80
2023-01-15T04:26:54.330Z,45.20
2023-01-15T04:29:21.583Z,43.00
2023-01-15T04:31:48.751Z,42.80
2023-01-15T04:34:15.865Z,40.10
2023-01-15T04:36:46.753Z,39.90
2023-01-15T04:39:13.842Z,42.50
2023-01-15T04:41:59.435Z,42.70
2023-01-15T04:44:28.864Z,38.10
2023-01-15T04:46:57.592Z,38.30
2023-01-15T04:49:24.634Z,37.80
2023-01-15T04:51:51.709Z,37.20
2023-01-15T04:54:19.113Z,38.80
2023-01-15T04:56:47.480Z,39.20
2023-01-15T04:59:15.362Z,38.80
2023-01-15T05:01:51.368Z,38.30
2023-01-15T05:04:22.174Z,38.00
2023-01-15T05:06:49.347Z,38.20
2023-01-15T05:09:16.589Z,35.80
2023-01-15T05:11:43.646Z,36.70
2023-01-15T05:14:10.579Z,35.20
2023-01-15T05:16:38.702Z,37.70
2023-01-15T05:19:08.167Z,36.00
2023-01-15T05:21:36.837Z,37.10
2023-01-15T05:24:05.234Z,40.10
2023-01-15T05:26:33.556Z,34.70
2023-01-15T05:29:00.703Z,38.30
2023-01-15T05:31:28.056Z,39.20
2023-01-15T05:33:55.397Z,37.30
2023-01-15T05:36:24.406Z,35.70
2023-01-15T05:38:52.528Z,38.60
2023-01-15T05:41:38.750Z,35.90
2023-01-15T05:44:08.073Z,35.80
2023-01-15T05:46:35.665Z,35.90
2023-01-15T05:49:04.926Z,34.90
2023-01-15T05:51:31.901Z,35.60
2023-01-15T05:53:58.872Z,36.40
2023-01-15T05:56:26.164Z,32.10
2023-01-15T05:58:53.313Z,35.70
2023-01-15T06:01:20.852Z,35.50
2023-01-15T06:03:48.634Z,34.10
2023-01-15T06:06:17.849Z,36.50
2023-01-15T06:08:45.383Z,33.40
2023-01-15T06:11:12.567Z,32.90
2023-01-15T06:13:39.829Z,32.20
2023-01-15T06:16:07.635Z,33.40
2023-01-15T06:18:35.745Z,34.10
2023-01-15T06:21:04.219Z,33.80
2023-01-15T06:23:31.700Z,34.00
2023-01-15T06:26:02.359Z,34.60
2023-01-15T06:28:29.371Z,37.90
2023-01-15T06:30:56.389Z,32.40
2023-01-15T06:33:23.488Z,32.40
2023-01-15T06:35:50.488Z,31.80
2023-01-15T06:38:17.490Z,32.40
2023-01-15T06:40:44.495Z,34.80
2023-01-15T06:43:30.180Z,32.50
2023-01-15T06:46:26.271Z,34.90
2023-01-15T06:48:54.061Z,29.90
2023-01-15T06:51:21.929Z,31.20
2023-01-15T06:53:48.911Z,30.80
2023-01-15T06:56:15.921Z,29.50
2023-01-15T06:58:43.612Z,30.10
2023-01-15T07:01:15.268Z,32.20
2023-01-15T07:03:42.549Z,29.90
2023-01-15T07:06:10.924Z,29.20
2023-01-15T07:08:38.065Z,31.20
2023-01-15T07:11:09.328Z,28.30
2023-01-15T07:13:36.281Z,29.30
2023-01-15T07:16:03.517Z,27.10
2023-01-15T07:18:31.518Z,28.70
2023-01-15T07:20:58.514Z,29.80
2023-01-15T07:23:26.062Z,25.40
2023-01-15T07:25:53.604Z,25.60
2023-01-15T07:28:21.389Z,23.20
2023-01-15T07:30:48.320Z,24.10
2023-01-15T07:33:15.400Z,21.60
2023-01-15T07:35:42.544Z,22.20
2023-01-15T07:38:09.573Z,22.20
2023-01-15T07:40:37.132Z,18.90
2023-01-15T07:43:22.819Z,20.80
2023-01-15T07:46:08.483Z,22.20
2023-01-15T07:48:54.353Z,18.80
2023-01-15T07:51:21.386Z,20.90
2023-01-15T07:53:48.396Z,20.00
2023-01-15T07:56:15.452Z,20.20
2023-01-15T07:58:42.502Z,19.00
2023-01-15T08:01:09.592Z,18.10
2023-01-15T08:03:36.614Z,18.40
2023-01-15T08:06:03.760Z,18.80
2023-01-15T08:08:30.763Z,15.80
2023-01-15T08:11:20.309Z,17.70
2023-01-15T08:14:06.007Z,18.10
2023-01-15T08:16:36.091Z,17.90
2023-01-15T08:19:03.749Z,17.90
2023-01-15T08:21:30.799Z,17.70
2023-01-15T08:23:57.776Z,17.10
2023-01-15T08:26:24.803Z,15.70
2023-01-15T08:28:51.778Z,16.60
2023-01-15T08:31:18.722Z,18.90
2023-01-15T08:33:45.737Z,18.80
2023-01-15T08:36:12.688Z,18.50
2023-01-15T08:38:39.632Z,17.60
2023-01-15T08:41:06.650Z,17.00
2023-01-15T08:43:33.667Z,15.80
2023-01-15T08:46:01.638Z,15.70
2023-01-15T08:48:29.505Z,16.70
2023-01-15T08:50:56.555Z,16.30
2023-01-15T08:53:24.547Z,17.20
2023-01-15T08:55:51.570Z,16.50
2023-01-15T08:58:18.627Z,15.60
2023-01-15T09:00:45.669Z,15.70
2023-01-15T09:03:12.748Z,18.70
2023-01-15T09:05:39.703Z,16.30
2023-01-15T09:08:07.191Z,15.30
2023-01-15T09:10:34.880Z,16.60
2023-01-15T09:13:03.673Z,17.30
2023-01-15T09:15:31.513Z,16.30
2023-01-15T09:17:58.596Z,19.70
2023-01-15T09:20:25.658Z,16.80
2023-01-15T09:22:52.711Z,17.20
2023-01-15T09:25:20.366Z,19.60
2023-01-15T09:27:49.182Z,19.80
2023-01-15T09:30:20.860Z,19.70
2023-01-15T09:32:48.274Z,19.50
2023-01-15T09:35:15.605Z,18.80
2023-01-15T09:37:42.591Z,20.30
2023-01-15T09:40:24.327Z,19.40
2023-01-15T09:43:00.592Z,20.70
2023-01-15T09:45:47.507Z,19.40
2023-01-15T09:48:30.008Z,19.90
2023-01-15T09:51:02.899Z,18.70
2023-01-15T09:53:43.088Z,19.60
2023-01-15T09:56:25.699Z,20.40
2023-01-15T09:58:52.681Z,21.50
2023-01-15T10:01:30.098Z,20.20
2023-01-15T10:04:12.663Z,20.90
2023-01-15T10:06:44.064Z,20.80
2023-01-15T10:09:13.149Z,19.00
2023-01-15T10:12:08.158Z,19.40
2023-01-15T10:14:39.815Z,20.40
2023-01-15T10:17:18.545Z,20.40
2023-01-15T10:19:45.610Z,23.60
2023-01-15T10:22:19.903Z,19.90
2023-01-15T10:24:53.305Z,22.10
2023-01-15T10:27:22.316Z,20.20
2023-01-15T10:29:58.691Z,19.80
2023-01-15T10:33:00.970Z,21.30
2023-01-15T10:35:34.355Z,21.70
2023-01-15T10:38:07.639Z,17.20
2023-01-15T10:40:46.970Z,20.70
2023-01-15T10:43:51.396Z,19.60
2023-01-15T10:46:20.275Z,19.80
2023-01-15T10:48:57.422Z,19.90
2023-01-15T10:51:25.348Z,19.60
2023-01-15T10:54:12.874Z,22.80
2023-01-15T10:56:52.517Z,21.40
2023-01-15T10:59:31.856Z,19.30
2023-01-15T11:01:59.144Z,21.30
2023-01-15T11:04:28.360Z,23.90
2023-01-15T11:06:55.461Z,25.50
2023-01-15T11:09:24.586Z,23.40
2023-01-15T11:11:57.707Z,25.00
2023-01-15T11:15:01.047Z,22.90
2023-01-15T11:17:57.489Z,27.50
2023-01-15T11:20:32.153Z,23.40
2023-01-15T11:23:16.467Z,23.30
2023-01-15T11:25:54.269Z,25.00
2023-01-15T11:28:35.756Z,25.70
2023-01-15T11:31:03.192Z,28.90
2023-01-15T11:33:32.301Z,26.80
2023-01-15T11:36:01.417Z,28.30
2023-01-15T11:38:30.825Z,24.80
2023-01-15T11:41:00.568Z,27.50
2023-01-15T11:43:48.319Z,27.70
2023-01-15T11:46:47.857Z,30.10
2023-01-15T11:49:38.581Z,28.60
2023-01-15T11:52:16.697Z,28.80
2023-01-15T12:06:37.190Z,25.20
2023-01-15T12:09:16.783Z,23.10
2023-01-15T12:11:55.820Z,28.00
2023-01-15T12:14:53.515Z,24.90
2023-01-15T12:18:03.319Z,25.60
2023-01-15T12:21:04.395Z,31.20
2023-01-15T12:23:33.920Z,27.90
2023-01-15T12:26:26.955Z,29.10
2023-01-15T12:29:06.509Z,26.70
2023-01-15T12:31:47.204Z,24.80
2023-01-15T12:34:19.188Z,25.80
2023-01-15T12:36:52.102Z,26.40
2023-01-15T12:39:29.448Z,29.00
2023-01-15T12:42:20.803Z,29.30
2023-01-15T12:45:03.942Z,23.60
2023-01-15T12:48:10.773Z,26.60
2023-01-15T12:50:37.582Z,25.80
2023-01-15T12:53:10.854Z,25.60
2023-01-15T12:55:53.731Z,28.90
2023-01-15T12:58:26.370Z,25.30
2023-01-15T13:00:57.952Z,25.90
2023-01-15T13:03:29.677Z,25.90
2023-01-15T13:05:59.639Z,26.00
2023-01-15T13:08:37.114Z,29.20
2023-01-15T13:11:04.356Z,25.80
2023-01-15T13:13:34.214Z,27.00
2023-01-15T13:16:19.597Z,26.70
2023-01-15T13:19:07.996Z,25.70
2023-01-15T13:21:35.553Z,29.70
2023-01-15T13:24:18.095Z,28.10
2023-01-15T13:26:51.446Z,25.80
2023-01-15T13:29:24.176Z,27.80
2023-01-15T13:31:58.325Z,28.00
2023-01-15T13:34:34.725Z,32.10
2023-01-15T13:37:12.300Z,27.90
2023-01-15T13:39:41.341Z,28.60
2023-01-15T13:42:32.703Z,29.50
2023-01-15T13:45:27.373Z,32.00
2023-01-15T13:48:02.333Z,31.00
2023-01-15T13:50:31.408Z,30.70
2023-01-15T13:53:08.948Z,28.80
2023-01-15T13:55:37.940Z,30.00
2023-01-15T13:58:35.764Z,28.70
2023-01-15T14:01:21.983Z,26.20
2023-01-15T14:04:11.818Z,26.80
2023-01-15T14:06:46.949Z,28.40
2023-01-15T14:09:17.793Z,27.20
2023-01-15T14:12:03.894Z,27.20
2023-01-15T14:14:43.199Z,28.70
2023-01-15T14:17:34.738Z,30.00
2023-01-15T14:20:23.474Z,27.30
2023-01-15T14:23:03.547Z,27.60
2023-01-15T14:25:33.319Z,32.70
2023-01-15T14:28:06.625Z,28.10
2023-01-15T14:30:50.206Z,30.30
2023-01-15T14:33:24.429Z,26.80
2023-01-15T14:35:51.630Z,26.20
2023-01-15T14:38:20.107Z,28.80
2023-01-15T14:41:04.732Z,30.10
2023-01-15T14:43:33.477Z,28.00
2023-01-15T14:46:24.463Z,30.90
2023-01-15T14:48:51.248Z,27.50
2023-01-15T14:51:23.475Z,28.40
2023-01-15T14:53:57.930Z,28.70
2023-01-15T14:56:29.168Z,27.50
2023-01-15T14:59:00.970Z,33.70
2023-01-15T15:04:19.949Z,27.70
2023-01-15T15:07:04.924Z,31.50
2023-01-15T15:09:57.990Z,28.00
2023-01-15T15:12:48.105Z,28.50
2023-01-15T15:15:19.320Z,28.60
2023-01-15T15:17:57.834Z,26.40
2023-01-15T15:20:33.634Z,26.40
2023-01-15T15:23:09.857Z,24.20
2023-01-15T15:25:39.505Z,23.30
2023-01-15T15:28:10.115Z,21.70
2023-01-15T15:30:41.279Z,26.00
2023-01-15T15:33:12.708Z,22.40
2023-01-15T15:35:40.012Z,24.30
2023-01-15T15:38:06.953Z,24.60
2023-01-15T15:40:35.097Z,21.10
2023-01-15T15:43:46.249Z,22.30
2023-01-15T15:46:47.766Z,28.80
2023-01-15T15:49:14.695Z,25.10
2023-01-15T15:51:45.553Z,26.70
2023-01-15T15:54:16.177Z,26.40
2023-01-15T15:57:02.406Z,25.60
2023-01-15T15:59:30.543Z,28.00
2023-01-15T16:01:59.132Z,26.40
2023-01-15T16:04:26.531Z,21.70
2023-01-15T16:06:53.447Z,22.20
2023-01-15T16:09:21.962Z,20.50
2023-01-15T16:11:50.302Z,26.60
2023-01-15T16:14:17.234Z,29.60
2023-01-15T16:16:44.137Z,31.70
2023-01-15T16:19:15.689Z,24.40
2023-01-15T16:21:43.926Z,26.50
2023-01-15T16:24:27.650Z,23.80
2023-01-15T16:26:59.043Z,28.00
2023-01-15T16:29:28.139Z,25.90
2023-01-15T16:31:56.408Z,30.00
2023-01-15T16:34:31.382Z,23.70
2023-01-15T16:36:58.880Z,29.20
2023-01-15T16:39:44.908Z,26.40
2023-01-15T16:42:24.635Z,32.40
2023-01-15T16:44:54.203Z,26.10
2023-01-15T16:47:41.200Z,30.40
2023-01-15T16:50:23.776Z,23.80
2023-01-15T16:52:55.280Z,27.80
2023-01-15T16:55:34.271Z,19.40
2023-01-15T16:58:14.187Z,30.30
2023-01-15T17:00:46.050Z,29.50
2023-01-15T17:03:20.838Z,29.80
2023-01-15T17:05:53.263Z,29.00
2023-01-15T17:08:47.021Z,28.80
2023-01-15T17:11:29.292Z,28.40
2023-01-15T17:14:20.598Z,25.40
2023-01-15T17:16:48.103Z,27.60
2023-01-15T17:19:15.679Z,35.00
2023-01-15T17:21:46.678Z,35.40
2023-01-15T17:24:13.527Z,36.80
2023-01-15T17:26:40.504Z,32.90
2023-01-15T17:29:08.910Z,34.20
2023-01-15T17:31:36.061Z,34.00
2023-01-15T17:34:03.481Z,30.70
2023-01-15T17:36:30.624Z,30.30
2023-01-15T17:38:57.493Z,27.80
2023-01-15T17:41:24.564Z,24.50
2023-01-15T17:43:52.324Z,28.40
2023-01-15T17:46:19.454Z,27.70
2023-01-15T18:06:53.325Z,27.40
2023-01-15T18:09:21.562Z,28.80
2023-01-15T18:11:50.237Z,25.60
2023-01-15T18:14:17.916Z,22.80
2023-01-15T18:16:44.969Z,24.90
2023-01-15T18:19:12.636Z,23.70
2023-01-15T18:21:40.240Z,24.10
2023-01-15T18:24:09.046Z,21.30
2023-01-15T18:26:37.912Z,23.70
2023-01-15T18:29:05.932Z,27.20
2023-01-15T18:31:33.625Z,29.10
2023-01-15T18:34:00.463Z,26.80
2023-01-15T18:36:30.367Z,29.60
2023-01-15T18:39:02.376Z,33.80
2023-01-15T18:41:36.612Z,40.10
2023-01-15T18:55:07.271Z,24.90
2023-01-15T18:57:34.423Z,24.40
2023-01-15T19:00:01.573Z,31.30
2023-01-15T19:02:29.363Z,29.30
2023-01-15T19:04:56.809Z,28.60
2023-01-15T19:07:23.823Z,27.10
2023-01-15T19:09:51.482Z,33.70
2023-01-15T19:12:19.974Z,27.60
2023-01-15T19:15:05.658Z,31.70
2023-01-15T19:17:51.301Z,27.50
2023-01-15T19:20:19.005Z,30.60
2023-01-15T19:23:05.179Z,26.10
2023-01-15T19:25:41.298Z,30.10
2023-01-15T19:28:10.348Z,26.00
2023-01-15T19:30:38.619Z,27.60
2023-01-15T19:33:06.601Z,28.70
2023-01-15T19:35:35.355Z,27.90
2023-01-15T19:38:03.044Z,31.50
2023-01-15T19:40:31.878Z,27.80
2023-01-15T19:43:17.892Z,29.80
2023-01-15T19:46:06.690Z,29.30
2023-01-15T19:48:52.690Z,32.30
